LAS weather

McCarran International Airport
Las Vegas, Nevada, United States

Public forecast

Using degrees Fahrenheit for public forecast. Weather courtesy of forecast.io.

METAR (pilot weather report)

Retrieved 2019/02/18 17:56 UTC (44 minutes ago):

KLAS 181756Z 32017G25KT 10SM FEW070 SCT100 SCT200 07/M08 A2996 RMK AO2 SLP149 T00721083 10072 20017 51018 $

TAF (pilot weather forecast)

Retrieved 2019/02/18 18:22 UTC (18 minutes ago):

TAF KLAS 181720Z 1818/1924 34011G19KT P6SM SCT080 SCT100 FM190200 33011KT P6SM BKN100 FM190600 30011G19KT P6SM SCT100 FM191100 34011KT P6SM SCT100